sensor_id;sensor_type;location;lat;lon;timestamp;pressure;altitude;pressure_sealevel;temperature;humidity
9335;BME280;4706;41.844;26.082;2022-09-13T00:01:45;100323.03;;;23.87;44.14
9335;BME280;4706;41.844;26.082;2022-09-13T00:04:11;100333.09;;;23.99;43.85
9335;BME280;4706;41.844;26.082;2022-09-13T00:06:36;100322.69;;;23.96;43.89
9335;BME280;4706;41.844;26.082;2022-09-13T00:09:02;100333.81;;;23.67;44.97
9335;BME280;4706;41.844;26.082;2022-09-13T00:11:29;100333.66;;;23.39;45.80
9335;BME280;4706;41.844;26.082;2022-09-13T00:13:56;100342.44;;;23.26;46.06
9335;BME280;4706;41.844;26.082;2022-09-13T00:16:25;100332.50;;;23.40;45.89
9335;BME280;4706;41.844;26.082;2022-09-13T00:18:52;100342.44;;;23.30;45.83
9335;BME280;4706;41.844;26.082;2022-09-13T00:21:19;100326.69;;;23.04;46.41
9335;BME280;4706;41.844;26.082;2022-09-13T00:23:50;100339.84;;;22.96;46.43
9335;BME280;4706;41.844;26.082;2022-09-13T00:26:22;100342.28;;;23.01;46.13
9335;BME280;4706;41.844;26.082;2022-09-13T00:28:50;100331.16;;;23.16;46.00
9335;BME280;4706;41.844;26.082;2022-09-13T00:31:16;100328.78;;;23.21;45.43
9335;BME280;4706;41.844;26.082;2022-09-13T00:33:41;100329.63;;;23.29;44.84
9335;BME280;4706;41.844;26.082;2022-09-13T00:36:09;100332.06;;;23.41;44.74
9335;BME280;4706;41.844;26.082;2022-09-13T00:38:37;100335.69;;;23.45;44.64
9335;BME280;4706;41.844;26.082;2022-09-13T00:41:05;100343.72;;;23.50;44.96
9335;BME280;4706;41.844;26.082;2022-09-13T00:43:45;100325.28;;;23.46;44.79
9335;BME280;4706;41.844;26.082;2022-09-13T00:46:39;100332.13;;;23.48;44.69
9335;BME280;4706;41.844;26.082;2022-09-13T00:49:33;100349.81;;;23.60;44.51
9335;BME280;4706;41.844;26.082;2022-09-13T00:52:06;100347.09;;;23.78;43.65
9335;BME280;4706;41.844;26.082;2022-09-13T00:54:38;100331.75;;;23.61;44.96
9335;BME280;4706;41.844;26.082;2022-09-13T00:57:06;100339.34;;;23.53;45.32
9335;BME280;4706;41.844;26.082;2022-09-13T00:59:43;100328.44;;;23.34;46.02
9335;BME280;4706;41.844;26.082;2022-09-13T01:02:12;100336.44;;;23.35;46.54
9335;BME280;4706;41.844;26.082;2022-09-13T01:04:39;100327.63;;;23.33;46.99
9335;BME280;4706;41.844;26.082;2022-09-13T01:07:08;100324.44;;;23.38;46.76
9335;BME280;4706;41.844;26.082;2022-09-13T01:09:38;100326.50;;;23.52;46.34
9335;BME280;4706;41.844;26.082;2022-09-13T01:12:18;100314.06;;;23.46;45.95
9335;BME280;4706;41.844;26.082;2022-09-13T01:14:47;100325.69;;;23.48;45.75
9335;BME280;4706;41.844;26.082;2022-09-13T01:17:13;100328.88;;;23.43;45.76
9335;BME280;4706;41.844;26.082;2022-09-13T01:19:38;100328.53;;;23.51;45.86
9335;BME280;4706;41.844;26.082;2022-09-13T01:30:53;100329.66;;;23.36;45.71
9335;BME280;4706;41.844;26.082;2022-09-13T01:41:53;100331.16;;;23.16;45.90
9335;BME280;4706;41.844;26.082;2022-09-13T01:55:24;100345.47;;;23.00;45.98
9335;BME280;4706;41.844;26.082;2022-09-13T02:00:18;100348.59;;;22.88;45.36
9335;BME280;4706;41.844;26.082;2022-09-13T02:06:01;100343.94;;;22.54;45.53
9335;BME280;4706;41.844;26.082;2022-09-13T02:08:37;100349.56;;;22.58;46.32
9335;BME280;4706;41.844;26.082;2022-09-13T02:11:11;100343.19;;;22.61;46.38
9335;BME280;4706;41.844;26.082;2022-09-13T02:13:50;100341.22;;;22.65;45.99
9335;BME280;4706;41.844;26.082;2022-09-13T02:16:46;100344.94;;;22.80;45.84
9335;BME280;4706;41.844;26.082;2022-09-13T02:19:27;100353.78;;;22.89;45.70
9335;BME280;4706;41.844;26.082;2022-09-13T02:21:58;100348.19;;;22.89;45.97
9335;BME280;4706;41.844;26.082;2022-09-13T02:24:31;100349.66;;;22.69;46.09
9335;BME280;4706;41.844;26.082;2022-09-13T02:27:02;100351.56;;;22.58;46.42
9335;BME280;4706;41.844;26.082;2022-09-13T02:29:31;100341.88;;;22.51;46.36
9335;BME280;4706;41.844;26.082;2022-09-13T02:32:21;100350.28;;;22.51;46.60
9335;BME280;4706;41.844;26.082;2022-09-13T02:34:51;100342.31;;;22.53;46.53
9335;BME280;4706;41.844;26.082;2022-09-13T02:37:18;100342.31;;;22.53;46.59
9335;BME280;4706;41.844;26.082;2022-09-13T02:39:52;100346.72;;;22.54;46.41
9335;BME280;4706;41.844;26.082;2022-09-13T02:42:22;100344.66;;;22.48;46.67
9335;BME280;4706;41.844;26.082;2022-09-13T02:44:55;100328.91;;;22.33;46.56
9335;BME280;4706;41.844;26.082;2022-09-13T02:47:46;100342.56;;;22.34;46.84
9335;BME280;4706;41.844;26.082;2022-09-13T02:53:50;100334.13;;;22.30;46.65
9335;BME280;4706;41.844;26.082;2022-09-13T02:59:15;100337.81;;;22.45;46.79
9335;BME280;4706;41.844;26.082;2022-09-13T03:01:47;100333.84;;;22.46;46.54
9335;BME280;4706;41.844;26.082;2022-09-13T03:04:14;100334.53;;;22.33;46.72
9335;BME280;4706;41.844;26.082;2022-09-13T03:06:39;100321.25;;;22.26;46.77
9335;BME280;4706;41.844;26.082;2022-09-13T03:09:06;100341.66;;;22.23;46.89
9335;BME280;4706;41.844;26.082;2022-09-13T03:14:46;100326.81;;;22.22;46.89
9335;BME280;4706;41.844;26.082;2022-09-13T03:17:31;100329.59;;;22.19;46.89
9335;BME280;4706;41.844;26.082;2022-09-13T03:20:07;100327.97;;;22.18;46.88
9335;BME280;4706;41.844;26.082;2022-09-13T03:31:09;100345.56;;;22.15;47.15
9335;BME280;4706;41.844;26.082;2022-09-13T03:34:06;100354.72;;;22.12;47.24
9335;BME280;4706;41.844;26.082;2022-09-13T03:36:37;100349.97;;;22.16;47.30
9335;BME280;4706;41.844;26.082;2022-09-13T03:42:47;100347.72;;;21.95;46.44
9335;BME280;4706;41.844;26.082;2022-09-13T03:45:18;100336.75;;;21.79;47.00
9335;BME280;4706;41.844;26.082;2022-09-13T03:47:48;100345.44;;;21.37;47.99
9335;BME280;4706;41.844;26.082;2022-09-13T03:50:18;100349.84;;;21.11;48.93
9335;BME280;4706;41.844;26.082;2022-09-13T03:52:46;100356.19;;;21.08;49.14
9335;BME280;4706;41.844;26.082;2022-09-13T03:55:13;100349.06;;;21.10;49.58
9335;BME280;4706;41.844;26.082;2022-09-13T03:57:38;100366.69;;;21.15;50.57
9335;BME280;4706;41.844;26.082;2022-09-13T04:00:04;100357.06;;;21.12;50.63
9335;BME280;4706;41.844;26.082;2022-09-13T04:02:30;100360.53;;;21.05;50.83
9335;BME280;4706;41.844;26.082;2022-09-13T04:04:57;100367.09;;;20.90;51.10
9335;BME280;4706;41.844;26.082;2022-09-13T04:07:23;100359.38;;;20.80;51.41
9335;BME280;4706;41.844;26.082;2022-09-13T04:09:49;100363.59;;;20.70;51.55
9335;BME280;4706;41.844;26.082;2022-09-13T04:12:16;100370.22;;;20.85;51.03
9335;BME280;4706;41.844;26.082;2022-09-13T04:14:42;100372.75;;;20.94;50.13
9335;BME280;4706;41.844;26.082;2022-09-13T04:17:08;100373.44;;;20.87;49.02
9335;BME280;4706;41.844;26.082;2022-09-13T04:19:34;100373.53;;;20.68;49.01
9335;BME280;4706;41.844;26.082;2022-09-13T04:22:00;100369.06;;;20.63;49.06
9335;BME280;4706;41.844;26.082;2022-09-13T04:24:27;100366.09;;;20.52;49.25
9335;BME280;4706;41.844;26.082;2022-09-13T04:26:54;100358.69;;;20.41;49.48
9335;BME280;4706;41.844;26.082;2022-09-13T04:29:22;100371.28;;;20.50;49.58
9335;BME280;4706;41.844;26.082;2022-09-13T04:31:49;100369.34;;;20.54;49.52
9335;BME280;4706;41.844;26.082;2022-09-13T04:34:15;100373.28;;;20.76;49.00
9335;BME280;4706;41.844;26.082;2022-09-13T04:36:44;100366.53;;;20.77;48.91
9335;BME280;4706;41.844;26.082;2022-09-13T04:39:10;100385.53;;;20.95;48.60
9335;BME280;4706;41.844;26.082;2022-09-13T04:41:39;100374.22;;;21.10;48.40
9335;BME280;4706;41.844;26.082;2022-09-13T04:44:04;100342.16;;;21.04;48.04
9335;BME280;4706;41.844;26.082;2022-09-13T04:46:30;100348.94;;;21.03;48.01
9335;BME280;4706;41.844;26.082;2022-09-13T04:48:55;100374.97;;;21.07;48.41
9335;BME280;4706;41.844;26.082;2022-09-13T04:51:21;100370.28;;;21.15;48.56
9335;BME280;4706;41.844;26.082;2022-09-13T04:53:51;100376.84;;;21.26;48.50
9335;BME280;4706;41.844;26.082;2022-09-13T04:56:18;100381.19;;;21.50;48.15
9335;BME280;4706;41.844;26.082;2022-09-13T04:58:44;100387.63;;;21.54;48.02
9335;BME280;4706;41.844;26.082;2022-09-13T05:01:10;100388.28;;;21.74;47.68
9335;BME280;4706;41.844;26.082;2022-09-13T05:03:36;100389.59;;;21.84;47.55
9335;BME280;4706;41.844;26.082;2022-09-13T05:06:07;100398.13;;;21.95;47.68
9335;BME280;4706;41.844;26.082;2022-09-13T05:08:34;100405.41;;;22.03;47.41
9335;BME280;4706;41.844;26.082;2022-09-13T05:11:00;100407.03;;;22.04;47.21
9335;BME280;4706;41.844;26.082;2022-09-13T05:13:26;100411.81;;;22.03;47.49
9335;BME280;4706;41.844;26.082;2022-09-13T05:16:00;100409.81;;;22.04;47.55
9335;BME280;4706;41.844;26.082;2022-09-13T05:18:28;100409.97;;;22.15;47.52
9335;BME280;4706;41.844;26.082;2022-09-13T05:20:54;100410.97;;;22.33;47.94
9335;BME280;4706;41.844;26.082;2022-09-13T05:23:21;100406.66;;;22.39;47.79
9335;BME280;4706;41.844;26.082;2022-09-13T05:25:58;100401.44;;;22.41;47.83
9335;BME280;4706;41.844;26.082;2022-09-13T05:28:25;100408.78;;;22.57;47.65
9335;BME280;4706;41.844;26.082;2022-09-13T05:31:26;100408.09;;;22.67;47.13
9335;BME280;4706;41.844;26.082;2022-09-13T05:33:56;100412.59;;;22.78;47.06
9335;BME280;4706;41.844;26.082;2022-09-13T05:36:22;100413.16;;;22.91;47.04
9335;BME280;4706;41.844;26.082;2022-09-13T05:38:47;100409.16;;;22.96;46.74
9335;BME280;4706;41.844;26.082;2022-09-13T05:41:13;100408.84;;;23.08;46.31
9335;BME280;4706;41.844;26.082;2022-09-13T05:43:38;100405.69;;;23.13;46.21
9335;BME280;4706;41.844;26.082;2022-09-13T05:48:30;100413.88;;;23.40;45.21
9335;BME280;4706;41.844;26.082;2022-09-13T05:50:56;100407.91;;;23.48;45.37
9335;BME280;4706;41.844;26.082;2022-09-13T05:53:22;100404.72;;;23.57;44.74
9335;BME280;4706;41.844;26.082;2022-09-13T05:55:47;100405.63;;;23.68;44.89
9335;BME280;4706;41.844;26.082;2022-09-13T05:58:13;100387.63;;;23.84;44.02
9335;BME280;4706;41.844;26.082;2022-09-13T06:00:38;100402.94;;;23.97;44.16
9335;BME280;4706;41.844;26.082;2022-09-13T06:03:04;100401.78;;;24.16;44.21
9335;BME280;4706;41.844;26.082;2022-09-13T06:05:29;100385.34;;;24.29;43.74
9335;BME280;4706;41.844;26.082;2022-09-13T06:07:54;100399.47;;;24.46;43.38
9335;BME280;4706;41.844;26.082;2022-09-13T06:10:20;100400.28;;;24.68;42.65
9335;BME280;4706;41.844;26.082;2022-09-13T06:12:46;100401.09;;;24.80;42.45
9335;BME280;4706;41.844;26.082;2022-09-13T06:15:12;100399.06;;;24.98;42.46
9335;BME280;4706;41.844;26.082;2022-09-13T06:17:38;100393.03;;;25.14;42.42
9335;BME280;4706;41.844;26.082;2022-09-13T06:20:04;100402.63;;;25.34;41.56
9335;BME280;4706;41.844;26.082;2022-09-13T06:22:29;100386.13;;;25.47;41.73
9335;BME280;4706;41.844;26.082;2022-09-13T06:24:58;100380.78;;;25.74;40.55
9335;BME280;4706;41.844;26.082;2022-09-13T06:27:24;100391.16;;;25.99;40.19
9335;BME280;4706;41.844;26.082;2022-09-13T06:29:49;100390.25;;;26.20;39.22
9335;BME280;4706;41.844;26.082;2022-09-13T06:32:15;100387.72;;;26.32;38.48
9335;BME280;4706;41.844;26.082;2022-09-13T06:34:41;100389.69;;;26.46;38.52
9335;BME280;4706;41.844;26.082;2022-09-13T06:37:06;100394.81;;;26.62;38.43
9335;BME280;4706;41.844;26.082;2022-09-13T06:39:32;100385.44;;;26.76;37.92
9335;BME280;4706;41.844;26.082;2022-09-13T06:41:59;100388.88;;;26.98;37.14
9335;BME280;4706;41.844;26.082;2022-09-13T06:44:24;100402.88;;;27.12;36.47
9335;BME280;4706;41.844;26.082;2022-09-13T06:46:50;100396.28;;;27.26;36.71
9335;BME280;4706;41.844;26.082;2022-09-13T06:49:15;100392.81;;;27.45;35.80
9335;BME280;4706;41.844;26.082;2022-09-13T06:51:41;100391.50;;;27.57;35.67
9335;BME280;4706;41.844;26.082;2022-09-13T06:54:06;100401.06;;;27.67;35.62
9335;BME280;4706;41.844;26.082;2022-09-13T06:56:36;100403.25;;;27.86;34.99
9335;BME280;4706;41.844;26.082;2022-09-13T06:59:04;100398.31;;;27.94;34.49
9335;BME280;4706;41.844;26.082;2022-09-13T07:01:41;100400.41;;;28.17;34.71
9335;BME280;4706;41.844;26.082;2022-09-13T07:04:13;100402.19;;;28.38;34.24
9335;BME280;4706;41.844;26.082;2022-09-13T07:06:44;100404.47;;;28.46;33.56
9335;BME280;4706;41.844;26.082;2022-09-13T07:09:13;100400.84;;;28.69;33.30
9335;BME280;4706;41.844;26.082;2022-09-13T07:11:40;100401.41;;;28.84;32.49
9335;BME280;4706;41.844;26.082;2022-09-13T07:14:06;100413.16;;;29.10;32.57
9335;BME280;4706;41.844;26.082;2022-09-13T07:16:35;100409.06;;;29.34;31.86
9335;BME280;4706;41.844;26.082;2022-09-13T07:19:04;100393.06;;;29.44;31.43
9335;BME280;4706;41.844;26.082;2022-09-13T07:21:30;100400.56;;;29.54;31.13
9335;BME280;4706;41.844;26.082;2022-09-13T07:23:57;100404.22;;;29.74;30.73
9335;BME280;4706;41.844;26.082;2022-09-13T07:26:24;100407.38;;;29.80;30.53
9335;BME280;4706;41.844;26.082;2022-09-13T07:28:53;100406.34;;;29.90;30.22
9335;BME280;4706;41.844;26.082;2022-09-13T07:33:51;100413.28;;;30.26;30.08
9335;BME280;4706;41.844;26.082;2022-09-13T07:36:17;100399.03;;;30.29;29.61
9335;BME280;4706;41.844;26.082;2022-09-13T07:38:43;100404.59;;;30.33;29.50
9335;BME280;4706;41.844;26.082;2022-09-13T07:41:20;100395.47;;;30.41;29.65
9335;BME280;4706;41.844;26.082;2022-09-13T07:43:47;100403.47;;;30.63;29.46
9335;BME280;4706;41.844;26.082;2022-09-13T07:46:15;100400.66;;;30.79;29.11
9335;BME280;4706;41.844;26.082;2022-09-13T07:48:43;100404.03;;;30.90;28.88
9335;BME280;4706;41.844;26.082;2022-09-13T07:51:10;100410.50;;;31.07;28.33
9335;BME280;4706;41.844;26.082;2022-09-13T07:53:37;100401.06;;;31.10;28.74
9335;BME280;4706;41.844;26.082;2022-09-13T07:56:14;100405.25;;;31.22;28.61
9335;BME280;4706;41.844;26.082;2022-09-13T07:58:41;100404.75;;;31.40;27.72
9335;BME280;4706;41.844;26.082;2022-09-13T08:03:37;100404.63;;;31.60;27.28
9335;BME280;4706;41.844;26.082;2022-09-13T08:06:04;100409.53;;;31.72;27.68
9335;BME280;4706;41.844;26.082;2022-09-13T08:08:30;100410.03;;;31.83;27.56
9335;BME280;4706;41.844;26.082;2022-09-13T08:10:59;100402.22;;;32.00;27.36
9335;BME280;4706;41.844;26.082;2022-09-13T08:13:25;100398.16;;;32.14;27.22
9335;BME280;4706;41.844;26.082;2022-09-13T08:15:51;100407.50;;;32.27;26.79
9335;BME280;4706;41.844;26.082;2022-09-13T08:18:17;100403.00;;;32.43;26.61
9335;BME280;4706;41.844;26.082;2022-09-13T08:20:43;100370.72;;;32.33;26.22
9335;BME280;4706;41.844;26.082;2022-09-13T08:23:10;100412.31;;;32.69;26.43
9335;BME280;4706;41.844;26.082;2022-09-13T08:25:37;100402.28;;;32.77;26.23
9335;BME280;4706;41.844;26.082;2022-09-13T08:28:14;100395.88;;;32.85;26.58
9335;BME280;4706;41.844;26.082;2022-09-13T08:30:40;100406.34;;;33.01;25.89
9335;BME280;4706;41.844;26.082;2022-09-13T08:33:09;100400.50;;;33.05;25.86
9335;BME280;4706;41.844;26.082;2022-09-13T08:35:35;100403.34;;;33.18;25.89
9335;BME280;4706;41.844;26.082;2022-09-13T08:38:00;100391.59;;;33.16;25.40
9335;BME280;4706;41.844;26.082;2022-09-13T08:40:28;100392.53;;;33.34;25.74
9335;BME280;4706;41.844;26.082;2022-09-13T08:45:34;100391.50;;;33.41;24.65
9335;BME280;4706;41.844;26.082;2022-09-13T08:48:11;100395.22;;;33.51;24.95
9335;BME280;4706;41.844;26.082;2022-09-13T08:50:38;100394.16;;;33.57;24.98
9335;BME280;4706;41.844;26.082;2022-09-13T08:55:42;100397.81;;;33.80;25.16
9335;BME280;4706;41.844;26.082;2022-09-13T09:03:48;100387.69;;;34.10;23.87
9335;BME280;4706;41.844;26.082;2022-09-13T09:06:16;100382.56;;;34.27;23.92
9335;BME280;4706;41.844;26.082;2022-09-13T09:09:02;100384.94;;;34.38;23.57
9335;BME280;4706;41.844;26.082;2022-09-13T09:11:40;100390.72;;;34.47;23.58
9335;BME280;4706;41.844;26.082;2022-09-13T09:16:42;100383.41;;;34.46;23.16
9335;BME280;4706;41.844;26.082;2022-09-13T09:19:24;100380.31;;;34.53;22.38
9335;BME280;4706;41.844;26.082;2022-09-13T09:21:54;100381.41;;;34.55;22.95
9335;BME280;4706;41.844;26.082;2022-09-13T09:24:24;100373.66;;;34.65;23.02
9335;BME280;4706;41.844;26.082;2022-09-13T09:26:52;100371.94;;;34.86;23.12
9335;BME280;4706;41.844;26.082;2022-09-13T09:29:25;100371.81;;;34.99;22.86
9335;BME280;4706;41.844;26.082;2022-09-13T09:37:19;100368.50;;;35.28;22.09
9335;BME280;4706;41.844;26.082;2022-09-13T09:39:51;100362.13;;;35.24;22.02
9335;BME280;4706;41.844;26.082;2022-09-13T09:42:25;100371.19;;;35.32;21.63
9335;BME280;4706;41.844;26.082;2022-09-13T09:45:00;100365.97;;;35.30;21.33
9335;BME280;4706;41.844;26.082;2022-09-13T09:47:28;100374.38;;;35.43;20.79
9335;BME280;4706;41.844;26.082;2022-09-13T09:50:10;100378.03;;;35.34;20.61
9335;BME280;4706;41.844;26.082;2022-09-13T09:55:30;100373.13;;;35.53;21.12
9335;BME280;4706;41.844;26.082;2022-09-13T09:58:01;100372.66;;;35.55;21.22
9335;BME280;4706;41.844;26.082;2022-09-13T10:00:31;100363.09;;;35.67;20.97
9335;BME280;4706;41.844;26.082;2022-09-13T10:03:18;100374.50;;;35.76;21.35
9335;BME280;4706;41.844;26.082;2022-09-13T10:05:45;100374.25;;;35.56;21.05
9335;BME280;4706;41.844;26.082;2022-09-13T10:08:35;100370.56;;;35.46;20.31
9335;BME280;4706;41.844;26.082;2022-09-13T10:11:02;100373.41;;;35.46;20.27
9335;BME280;4706;41.844;26.082;2022-09-13T10:13:29;100371.34;;;35.46;19.80
9335;BME280;4706;41.844;26.082;2022-09-13T10:16:00;100369.13;;;35.50;20.20
9335;BME280;4706;41.844;26.082;2022-09-13T10:18:34;100364.38;;;35.38;19.51
9335;BME280;4706;41.844;26.082;2022-09-13T10:21:21;100365.91;;;34.93;19.84
9335;BME280;4706;41.844;26.082;2022-09-13T10:23:48;100361.31;;;34.96;20.92
9335;BME280;4706;41.844;26.082;2022-09-13T10:26:19;100354.06;;;35.22;20.76
9335;BME280;4706;41.844;26.082;2022-09-13T10:29:06;100356.56;;;35.57;20.96
9335;BME280;4706;41.844;26.082;2022-09-13T10:31:38;100348.44;;;35.74;20.49
9335;BME280;4706;41.844;26.082;2022-09-13T10:36:57;100342.59;;;35.41;20.49
9335;BME280;4706;41.844;26.082;2022-09-13T10:39:26;100337.50;;;35.45;19.04
9335;BME280;4706;41.844;26.082;2022-09-13T10:42:02;100333.25;;;35.22;19.33
9335;BME280;4706;41.844;26.082;2022-09-13T10:44:52;100319.56;;;34.98;20.29
9335;BME280;4706;41.844;26.082;2022-09-13T10:47:46;100326.41;;;35.28;20.62
9335;BME280;4706;41.844;26.082;2022-09-13T10:52:57;100316.94;;;35.83;19.04
9335;BME280;4706;41.844;26.082;2022-09-13T11:00:49;100305.94;;;35.91;19.21
9335;BME280;4706;41.844;26.082;2022-09-13T11:03:46;100296.50;;;36.09;18.38
9335;BME280;4706;41.844;26.082;2022-09-13T11:14:36;100292.81;;;36.41;18.10
9335;BME280;4706;41.844;26.082;2022-09-13T11:20:56;100294.69;;;36.44;18.25
9335;BME280;4706;41.844;26.082;2022-09-13T11:29:13;100275.84;;;36.62;17.66
9335;BME280;4706;41.844;26.082;2022-09-13T11:45:20;100272.38;;;36.24;18.13
9335;BME280;4706;41.844;26.082;2022-09-13T11:53:58;100253.41;;;36.60;18.20
9335;BME280;4706;41.844;26.082;2022-09-13T11:56:39;100255.69;;;36.71;17.73
9335;BME280;4706;41.844;26.082;2022-09-13T12:01:55;100249.75;;;36.60;18.07
9335;BME280;4706;41.844;26.082;2022-09-13T12:04:29;100261.31;;;36.41;17.90
9335;BME280;4706;41.844;26.082;2022-09-13T12:07:04;100257.19;;;35.76;18.66
9335;BME280;4706;41.844;26.082;2022-09-13T12:09:35;100236.00;;;35.40;18.41
9335;BME280;4706;41.844;26.082;2022-09-13T12:12:05;100248.69;;;35.39;18.54
9335;BME280;4706;41.844;26.082;2022-09-13T12:17:34;100253.03;;;35.16;18.83
9335;BME280;4706;41.844;26.082;2022-09-13T12:19:57;100253.22;;;34.76;19.17
9335;BME280;4706;41.844;26.082;2022-09-13T12:22:28;100248.91;;;34.71;19.44
9335;BME280;4706;41.844;26.082;2022-09-13T12:24:59;100245.59;;;34.91;19.40
9335;BME280;4706;41.844;26.082;2022-09-13T12:27:28;100250.81;;;35.11;18.80
9335;BME280;4706;41.844;26.082;2022-09-13T12:30:05;100241.94;;;35.00;18.29
9335;BME280;4706;41.844;26.082;2022-09-13T12:32:31;100248.91;;;34.99;18.78
9335;BME280;4706;41.844;26.082;2022-09-13T12:35:03;100251.16;;;35.04;18.38
9335;BME280;4706;41.844;26.082;2022-09-13T12:57:19;100242.09;;;34.69;17.14
9335;BME280;4706;41.844;26.082;2022-09-13T13:02:30;100242.38;;;34.52;18.41
9335;BME280;4706;41.844;26.082;2022-09-13T13:05:19;100237.78;;;34.46;18.36
9335;BME280;4706;41.844;26.082;2022-09-13T13:07:51;100248.72;;;34.47;18.67
9335;BME280;4706;41.844;26.082;2022-09-13T13:10:27;100251.41;;;34.42;19.62
9335;BME280;4706;41.844;26.082;2022-09-13T13:12:56;100236.97;;;34.36;19.67
9335;BME280;4706;41.844;26.082;2022-09-13T13:18:24;100253.78;;;34.34;19.49
9335;BME280;4706;41.844;26.082;2022-09-13T13:23:24;100255.03;;;33.52;19.86
9335;BME280;4706;41.844;26.082;2022-09-13T13:26:10;100250.22;;;33.40;20.62
9335;BME280;4706;41.844;26.082;2022-09-13T13:38:51;100250.66;;;33.60;20.11
9335;BME280;4706;41.844;26.082;2022-09-13T13:46:39;100245.75;;;33.39;20.11
9335;BME280;4706;41.844;26.082;2022-09-13T13:57:27;100251.34;;;33.21;20.55
9335;BME280;4706;41.844;26.082;2022-09-13T13:59:55;100249.75;;;33.20;20.53
9335;BME280;4706;41.844;26.082;2022-09-13T14:02:30;100243.88;;;33.14;20.72
9335;BME280;4706;41.844;26.082;2022-09-13T14:08:48;100254.59;;;33.10;20.87
9335;BME280;4706;41.844;26.082;2022-09-13T14:12:00;100257.13;;;33.08;20.49
9335;BME280;4706;41.844;26.082;2022-09-13T14:19:16;100263.81;;;32.79;20.87
9335;BME280;4706;41.844;26.082;2022-09-13T14:21:43;100255.69;;;32.69;21.30
9335;BME280;4706;41.844;26.082;2022-09-13T14:24:23;100248.88;;;32.53;21.24
9335;BME280;4706;41.844;26.082;2022-09-13T14:26:56;100269.38;;;32.48;21.55
9335;BME280;4706;41.844;26.082;2022-09-13T14:29:23;100266.09;;;32.37;21.67
9335;BME280;4706;41.844;26.082;2022-09-13T14:31:54;100270.31;;;32.20;21.60
9335;BME280;4706;41.844;26.082;2022-09-13T14:34:31;100265.56;;;32.16;21.63
9335;BME280;4706;41.844;26.082;2022-09-13T14:36:59;100280.59;;;32.17;22.01
9335;BME280;4706;41.844;26.082;2022-09-13T14:39:26;100273.88;;;32.11;21.85
9335;BME280;4706;41.844;26.082;2022-09-13T14:44:25;100274.69;;;31.99;21.99
9335;BME280;4706;41.844;26.082;2022-09-13T14:47:06;100267.28;;;31.88;22.00
9335;BME280;4706;41.844;26.082;2022-09-13T14:49:37;100270.13;;;31.88;21.66
9335;BME280;4706;41.844;26.082;2022-09-13T14:52:19;100271.69;;;31.77;22.01
9335;BME280;4706;41.844;26.082;2022-09-13T14:54:51;100278.16;;;31.77;22.38
9335;BME280;4706;41.844;26.082;2022-09-13T14:57:23;100280.44;;;31.69;22.28
9335;BME280;4706;41.844;26.082;2022-09-13T14:59:53;100289.06;;;31.66;22.56
9335;BME280;4706;41.844;26.082;2022-09-13T15:02:22;100280.66;;;31.62;22.66
9335;BME280;4706;41.844;26.082;2022-09-13T15:04:51;100288.38;;;31.62;22.72
9335;BME280;4706;41.844;26.082;2022-09-13T15:07:31;100284.53;;;31.56;23.12
9335;BME280;4706;41.844;26.082;2022-09-13T15:12:30;100289.75;;;31.57;22.77
9335;BME280;4706;41.844;26.082;2022-09-13T15:15:20;100295.09;;;31.55;22.50
9335;BME280;4706;41.844;26.082;2022-09-13T15:20:19;100284.25;;;31.37;22.77
9335;BME280;4706;41.844;26.082;2022-09-13T15:22:47;100293.47;;;31.41;22.89
9335;BME280;4706;41.844;26.082;2022-09-13T15:27:50;100287.22;;;31.34;22.51
9335;BME280;4706;41.844;26.082;2022-09-13T15:30:31;100283.38;;;31.24;22.56
9335;BME280;4706;41.844;26.082;2022-09-13T15:33:21;100295.13;;;31.26;22.99
9335;BME280;4706;41.844;26.082;2022-09-13T15:35:47;100297.28;;;31.22;23.19
9335;BME280;4706;41.844;26.082;2022-09-13T15:38:30;100307.91;;;31.18;23.36
9335;BME280;4706;41.844;26.082;2022-09-13T15:41:17;100303.69;;;31.10;23.04
9335;BME280;4706;41.844;26.082;2022-09-13T15:43:43;100307.88;;;31.05;23.25
9335;BME280;4706;41.844;26.082;2022-09-13T15:46:16;100307.28;;;30.98;23.48
9335;BME280;4706;41.844;26.082;2022-09-13T15:49:21;100307.13;;;30.88;23.39
9335;BME280;4706;41.844;26.082;2022-09-13T15:51:41;100318.50;;;30.88;23.19
9335;BME280;4706;41.844;26.082;2022-09-13T15:54:11;100308.22;;;30.78;23.23
9335;BME280;4706;41.844;26.082;2022-09-13T15:56:41;100321.72;;;30.74;23.42
9335;BME280;4706;41.844;26.082;2022-09-13T15:59:14;100318.13;;;30.70;23.98
9335;BME280;4706;41.844;26.082;2022-09-13T16:01:42;100322.28;;;30.65;23.59
9335;BME280;4706;41.844;26.082;2022-09-13T16:04:08;100321.59;;;30.61;23.62
9335;BME280;4706;41.844;26.082;2022-09-13T16:06:34;100326.66;;;30.54;23.52
9335;BME280;4706;41.844;26.082;2022-09-13T16:08:59;100324.00;;;30.46;24.05
9335;BME280;4706;41.844;26.082;2022-09-13T16:11:26;100315.41;;;30.34;23.96
9335;BME280;4706;41.844;26.082;2022-09-13T16:13:51;100289.88;;;30.17;24.16
9335;BME280;4706;41.844;26.082;2022-09-13T16:16:17;100315.22;;;30.24;24.35
9335;BME280;4706;41.844;26.082;2022-09-13T16:18:43;100331.88;;;30.22;24.57
9335;BME280;4706;41.844;26.082;2022-09-13T16:21:09;100325.22;;;30.13;24.49
9335;BME280;4706;41.844;26.082;2022-09-13T16:23:34;100318.38;;;30.10;24.34
9335;BME280;4706;41.844;26.082;2022-09-13T16:26:00;100319.25;;;30.07;24.44
9335;BME280;4706;41.844;26.082;2022-09-13T16:28:26;100321.09;;;29.97;24.61
9335;BME280;4706;41.844;26.082;2022-09-13T16:30:52;100319.16;;;29.94;24.79
9335;BME280;4706;41.844;26.082;2022-09-13T16:33:19;100319.81;;;29.82;24.80
9335;BME280;4706;41.844;26.082;2022-09-13T16:35:45;100330.03;;;29.96;24.90
9335;BME280;4706;41.844;26.082;2022-09-13T16:38:11;100332.69;;;29.87;25.08
9335;BME280;4706;41.844;26.082;2022-09-13T16:40:38;100336.63;;;29.73;25.16
9335;BME280;4706;41.844;26.082;2022-09-13T16:43:05;100337.88;;;29.72;25.13
9335;BME280;4706;41.844;26.082;2022-09-13T16:45:31;100323.59;;;29.56;25.27
9335;BME280;4706;41.844;26.082;2022-09-13T16:47:56;100336.53;;;29.60;25.20